sensor_id;sensor_type;location;lat;lon;timestamp;P1;durP1;ratioP1;P2;durP2;ratioP2
38034;SDS011;23841;48.524;1.342;2022-11-20T00:02:14;7.32;;;2.28;;
38034;SDS011;23841;48.524;1.342;2022-11-20T00:04:39;6.35;;;2.40;;
38034;SDS011;23841;48.524;1.342;2022-11-20T00:07:05;5.53;;;2.35;;
38034;SDS011;23841;48.524;1.342;2022-11-20T00:09:30;8.73;;;2.92;;
38034;SDS011;23841;48.524;1.342;2022-11-20T00:11:57;7.15;;;2.42;;
38034;SDS011;23841;48.524;1.342;2022-11-20T00:14:22;4.75;;;2.38;;
38034;SDS011;23841;48.524;1.342;2022-11-20T00:16:48;6.82;;;2.60;;
38034;SDS011;23841;48.524;1.342;2022-11-20T00:19:13;6.22;;;2.55;;
38034;SDS011;23841;48.524;1.342;2022-11-20T00:21:39;5.93;;;2.30;;
38034;SDS011;23841;48.524;1.342;2022-11-20T00:24:04;5.97;;;2.35;;
38034;SDS011;23841;48.524;1.342;2022-11-20T00:26:30;6.45;;;2.40;;
38034;SDS011;23841;48.524;1.342;2022-11-20T00:28:56;7.47;;;2.33;;
38034;SDS011;23841;48.524;1.342;2022-11-20T00:31:22;6.95;;;2.58;;
38034;SDS011;23841;48.524;1.342;2022-11-20T00:33:48;9.70;;;2.83;;
38034;SDS011;23841;48.524;1.342;2022-11-20T00:36:17;9.10;;;2.83;;
38034;SDS011;23841;48.524;1.342;2022-11-20T00:38:43;7.60;;;2.85;;
38034;SDS011;23841;48.524;1.342;2022-11-20T00:41:09;5.53;;;2.20;;
38034;SDS011;23841;48.524;1.342;2022-11-20T00:43:36;6.03;;;2.20;;
38034;SDS011;23841;48.524;1.342;2022-11-20T00:46:08;5.57;;;2.30;;
38034;SDS011;23841;48.524;1.342;2022-11-20T00:48:33;5.45;;;2.00;;
38034;SDS011;23841;48.524;1.342;2022-11-20T00:50:59;6.53;;;2.67;;
38034;SDS011;23841;48.524;1.342;2022-11-20T00:53:24;8.27;;;2.60;;
38034;SDS011;23841;48.524;1.342;2022-11-20T00:55:56;8.68;;;3.75;;
38034;SDS011;23841;48.524;1.342;2022-11-20T00:58:22;8.35;;;2.53;;
38034;SDS011;23841;48.524;1.342;2022-11-20T01:00:48;6.63;;;2.33;;
38034;SDS011;23841;48.524;1.342;2022-11-20T01:03:15;6.65;;;2.92;;
38034;SDS011;23841;48.524;1.342;2022-11-20T01:05:40;6.88;;;2.80;;
38034;SDS011;23841;48.524;1.342;2022-11-20T01:08:05;7.85;;;2.40;;
38034;SDS011;23841;48.524;1.342;2022-11-20T01:10:31;5.35;;;2.45;;
38034;SDS011;23841;48.524;1.342;2022-11-20T01:12:56;6.35;;;2.65;;
38034;SDS011;23841;48.524;1.342;2022-11-20T01:15:40;7.28;;;2.33;;
38034;SDS011;23841;48.524;1.342;2022-11-20T01:18:05;7.28;;;3.45;;
38034;SDS011;23841;48.524;1.342;2022-11-20T01:20:34;7.55;;;2.05;;
38034;SDS011;23841;48.524;1.342;2022-11-20T01:22:59;5.63;;;2.05;;
38034;SDS011;23841;48.524;1.342;2022-11-20T01:25:25;5.90;;;2.22;;
38034;SDS011;23841;48.524;1.342;2022-11-20T01:27:50;6.65;;;2.65;;
38034;SDS011;23841;48.524;1.342;2022-11-20T01:30:15;6.18;;;2.08;;
38034;SDS011;23841;48.524;1.342;2022-11-20T01:32:41;7.25;;;2.75;;
38034;SDS011;23841;48.524;1.342;2022-11-20T01:35:06;10.68;;;2.33;;
38034;SDS011;23841;48.524;1.342;2022-11-20T01:37:32;4.97;;;2.53;;
38034;SDS011;23841;48.524;1.342;2022-11-20T01:39:57;4.28;;;2.10;;
38034;SDS011;23841;48.524;1.342;2022-11-20T01:42:22;6.85;;;2.40;;
38034;SDS011;23841;48.524;1.342;2022-11-20T01:47:51;7.72;;;2.22;;
38034;SDS011;23841;48.524;1.342;2022-11-20T01:50:23;6.65;;;2.20;;
38034;SDS011;23841;48.524;1.342;2022-11-20T01:53:00;6.65;;;3.15;;
38034;SDS011;23841;48.524;1.342;2022-11-20T01:55:28;5.72;;;2.30;;
38034;SDS011;23841;48.524;1.342;2022-11-20T01:57:55;7.75;;;2.60;;
38034;SDS011;23841;48.524;1.342;2022-11-20T02:00:20;7.53;;;2.63;;
38034;SDS011;23841;48.524;1.342;2022-11-20T02:02:48;5.88;;;2.80;;
38034;SDS011;23841;48.524;1.342;2022-11-20T02:07:43;6.22;;;2.20;;
38034;SDS011;23841;48.524;1.342;2022-11-20T02:10:08;5.90;;;2.65;;
38034;SDS011;23841;48.524;1.342;2022-11-20T02:12:34;5.65;;;2.30;;
38034;SDS011;23841;48.524;1.342;2022-11-20T02:15:18;5.82;;;2.30;;
38034;SDS011;23841;48.524;1.342;2022-11-20T02:17:43;5.20;;;2.42;;
38034;SDS011;23841;48.524;1.342;2022-11-20T02:20:08;6.57;;;2.38;;
38034;SDS011;23841;48.524;1.342;2022-11-20T02:22:36;6.00;;;2.00;;
38034;SDS011;23841;48.524;1.342;2022-11-20T02:25:03;5.18;;;2.00;;
38034;SDS011;23841;48.524;1.342;2022-11-20T02:27:30;6.07;;;2.05;;
38034;SDS011;23841;48.524;1.342;2022-11-20T02:30:05;5.93;;;2.45;;
38034;SDS011;23841;48.524;1.342;2022-11-20T02:32:35;7.40;;;1.80;;
38034;SDS011;23841;48.524;1.342;2022-11-20T02:35:08;3.63;;;1.73;;
38034;SDS011;23841;48.524;1.342;2022-11-20T02:37:35;8.00;;;2.25;;
38034;SDS011;23841;48.524;1.342;2022-11-20T02:40:01;6.38;;;2.72;;
38034;SDS011;23841;48.524;1.342;2022-11-20T02:42:27;4.82;;;2.00;;
38034;SDS011;23841;48.524;1.342;2022-11-20T02:44:52;3.63;;;1.60;;
38034;SDS011;23841;48.524;1.342;2022-11-20T02:47:17;5.25;;;2.00;;
38034;SDS011;23841;48.524;1.342;2022-11-20T02:49:42;6.10;;;1.95;;
38034;SDS011;23841;48.524;1.342;2022-11-20T02:52:08;6.75;;;2.80;;
38034;SDS011;23841;48.524;1.342;2022-11-20T02:54:33;4.25;;;2.00;;
38034;SDS011;23841;48.524;1.342;2022-11-20T02:56:58;3.47;;;1.80;;
38034;SDS011;23841;48.524;1.342;2022-11-20T02:59:23;5.75;;;2.13;;
38034;SDS011;23841;48.524;1.342;2022-11-20T03:01:49;6.20;;;1.88;;
38034;SDS011;23841;48.524;1.342;2022-11-20T03:04:14;7.43;;;2.30;;
38034;SDS011;23841;48.524;1.342;2022-11-20T03:06:41;6.28;;;2.58;;
38034;SDS011;23841;48.524;1.342;2022-11-20T03:09:11;6.70;;;2.33;;
38034;SDS011;23841;48.524;1.342;2022-11-20T03:11:44;5.88;;;2.20;;
38034;SDS011;23841;48.524;1.342;2022-11-20T03:14:10;3.97;;;2.03;;
38034;SDS011;23841;48.524;1.342;2022-11-20T03:16:37;5.60;;;1.75;;
38034;SDS011;23841;48.524;1.342;2022-11-20T03:19:02;5.50;;;1.80;;
38034;SDS011;23841;48.524;1.342;2022-11-20T03:21:28;5.10;;;1.90;;
38034;SDS011;23841;48.524;1.342;2022-11-20T03:23:56;5.82;;;2.03;;
38034;SDS011;23841;48.524;1.342;2022-11-20T03:26:22;4.68;;;2.33;;
38034;SDS011;23841;48.524;1.342;2022-11-20T03:28:52;4.70;;;1.77;;
38034;SDS011;23841;48.524;1.342;2022-11-20T03:31:19;4.18;;;2.10;;
38034;SDS011;23841;48.524;1.342;2022-11-20T03:33:44;6.47;;;1.90;;
38034;SDS011;23841;48.524;1.342;2022-11-20T03:36:11;4.13;;;1.83;;
38034;SDS011;23841;48.524;1.342;2022-11-20T03:38:37;5.07;;;2.03;;
38034;SDS011;23841;48.524;1.342;2022-11-20T03:41:10;6.50;;;2.33;;
38034;SDS011;23841;48.524;1.342;2022-11-20T03:43:36;4.75;;;1.75;;
38034;SDS011;23841;48.524;1.342;2022-11-20T03:46:02;8.45;;;2.60;;
38034;SDS011;23841;48.524;1.342;2022-11-20T03:48:28;5.70;;;1.85;;
38034;SDS011;23841;48.524;1.342;2022-11-20T03:51:07;6.88;;;2.45;;
38034;SDS011;23841;48.524;1.342;2022-11-20T03:53:33;5.07;;;1.95;;
38034;SDS011;23841;48.524;1.342;2022-11-20T03:55:58;4.78;;;1.88;;
38034;SDS011;23841;48.524;1.342;2022-11-20T03:58:23;5.90;;;2.20;;
38034;SDS011;23841;48.524;1.342;2022-11-20T04:00:48;4.28;;;1.92;;
38034;SDS011;23841;48.524;1.342;2022-11-20T04:03:14;5.38;;;2.00;;
38034;SDS011;23841;48.524;1.342;2022-11-20T04:05:39;4.88;;;1.90;;
38034;SDS011;23841;48.524;1.342;2022-11-20T04:08:04;6.72;;;1.90;;
38034;SDS011;23841;48.524;1.342;2022-11-20T04:10:30;4.03;;;2.00;;
38034;SDS011;23841;48.524;1.342;2022-11-20T04:12:56;5.53;;;2.28;;
38034;SDS011;23841;48.524;1.342;2022-11-20T04:15:22;4.47;;;1.83;;
38034;SDS011;23841;48.524;1.342;2022-11-20T04:17:47;5.85;;;1.90;;
38034;SDS011;23841;48.524;1.342;2022-11-20T04:20:13;14.18;;;4.03;;
38034;SDS011;23841;48.524;1.342;2022-11-20T04:22:38;7.38;;;1.90;;
38034;SDS011;23841;48.524;1.342;2022-11-20T04:25:03;8.60;;;2.00;;
38034;SDS011;23841;48.524;1.342;2022-11-20T04:27:30;4.97;;;1.98;;
38034;SDS011;23841;48.524;1.342;2022-11-20T04:29:55;5.28;;;1.67;;
38034;SDS011;23841;48.524;1.342;2022-11-20T04:32:21;4.82;;;1.80;;
38034;SDS011;23841;48.524;1.342;2022-11-20T04:34:46;4.95;;;1.85;;
38034;SDS011;23841;48.524;1.342;2022-11-20T04:37:12;6.18;;;2.30;;
38034;SDS011;23841;48.524;1.342;2022-11-20T04:39:37;4.32;;;1.77;;
38034;SDS011;23841;48.524;1.342;2022-11-20T04:42:02;4.22;;;1.73;;
38034;SDS011;23841;48.524;1.342;2022-11-20T04:44:46;5.68;;;2.17;;
38034;SDS011;23841;48.524;1.342;2022-11-20T04:47:12;4.43;;;1.60;;
38034;SDS011;23841;48.524;1.342;2022-11-20T04:49:37;9.18;;;3.60;;
38034;SDS011;23841;48.524;1.342;2022-11-20T04:52:03;6.72;;;2.28;;
38034;SDS011;23841;48.524;1.342;2022-11-20T04:54:28;5.05;;;2.25;;
38034;SDS011;23841;48.524;1.342;2022-11-20T04:56:53;4.30;;;1.83;;
38034;SDS011;23841;48.524;1.342;2022-11-20T04:59:19;5.68;;;1.85;;
38034;SDS011;23841;48.524;1.342;2022-11-20T05:01:44;3.83;;;1.80;;
38034;SDS011;23841;48.524;1.342;2022-11-20T05:04:09;8.63;;;1.85;;
38034;SDS011;23841;48.524;1.342;2022-11-20T05:06:34;6.30;;;1.67;;
38034;SDS011;23841;48.524;1.342;2022-11-20T05:09:00;6.18;;;2.10;;
38034;SDS011;23841;48.524;1.342;2022-11-20T05:11:26;6.50;;;2.05;;
38034;SDS011;23841;48.524;1.342;2022-11-20T05:13:53;4.22;;;1.80;;
38034;SDS011;23841;48.524;1.342;2022-11-20T05:16:20;5.20;;;1.98;;
38034;SDS011;23841;48.524;1.342;2022-11-20T05:18:45;8.10;;;1.98;;
38034;SDS011;23841;48.524;1.342;2022-11-20T05:21:11;4.22;;;1.95;;
38034;SDS011;23841;48.524;1.342;2022-11-20T05:23:37;7.38;;;1.90;;
38034;SDS011;23841;48.524;1.342;2022-11-20T05:26:03;4.45;;;1.58;;
38034;SDS011;23841;48.524;1.342;2022-11-20T05:28:29;6.57;;;2.00;;
38034;SDS011;23841;48.524;1.342;2022-11-20T05:30:54;4.20;;;1.70;;
38034;SDS011;23841;48.524;1.342;2022-11-20T05:33:20;7.50;;;2.13;;
38034;SDS011;23841;48.524;1.342;2022-11-20T05:35:45;5.32;;;2.05;;
38034;SDS011;23841;48.524;1.342;2022-11-20T05:38:11;6.30;;;2.15;;
38034;SDS011;23841;48.524;1.342;2022-11-20T05:40:36;6.03;;;2.45;;
38034;SDS011;23841;48.524;1.342;2022-11-20T05:43:02;7.82;;;2.33;;
38034;SDS011;23841;48.524;1.342;2022-11-20T05:45:27;4.90;;;1.90;;
38034;SDS011;23841;48.524;1.342;2022-11-20T05:47:52;4.57;;;1.75;;
38034;SDS011;23841;48.524;1.342;2022-11-20T05:50:18;4.65;;;2.38;;
38034;SDS011;23841;48.524;1.342;2022-11-20T05:52:43;6.18;;;2.00;;
38034;SDS011;23841;48.524;1.342;2022-11-20T05:55:08;5.18;;;2.17;;
38034;SDS011;23841;48.524;1.342;2022-11-20T05:57:34;4.80;;;2.30;;
38034;SDS011;23841;48.524;1.342;2022-11-20T05:59:59;5.38;;;2.33;;
38034;SDS011;23841;48.524;1.342;2022-11-20T06:02:25;4.90;;;2.38;;
38034;SDS011;23841;48.524;1.342;2022-11-20T06:04:50;7.82;;;2.60;;
38034;SDS011;23841;48.524;1.342;2022-11-20T06:07:15;6.20;;;2.40;;
38034;SDS011;23841;48.524;1.342;2022-11-20T06:09:41;6.35;;;2.92;;
38034;SDS011;23841;48.524;1.342;2022-11-20T06:12:06;5.20;;;2.10;;
38034;SDS011;23841;48.524;1.342;2022-11-20T06:14:32;6.25;;;2.47;;
38034;SDS011;23841;48.524;1.342;2022-11-20T06:16:57;6.65;;;2.22;;
38034;SDS011;23841;48.524;1.342;2022-11-20T06:19:23;7.65;;;2.95;;
38034;SDS011;23841;48.524;1.342;2022-11-20T06:21:48;5.15;;;2.10;;
38034;SDS011;23841;48.524;1.342;2022-11-20T06:24:17;5.68;;;2.17;;
38034;SDS011;23841;48.524;1.342;2022-11-20T06:26:42;5.50;;;2.50;;
38034;SDS011;23841;48.524;1.342;2022-11-20T06:29:07;4.57;;;2.30;;
38034;SDS011;23841;48.524;1.342;2022-11-20T06:31:32;6.40;;;2.00;;
38034;SDS011;23841;48.524;1.342;2022-11-20T06:34:00;5.50;;;2.50;;
38034;SDS011;23841;48.524;1.342;2022-11-20T06:36:25;7.82;;;2.60;;
38034;SDS011;23841;48.524;1.342;2022-11-20T06:38:50;7.68;;;2.63;;
38034;SDS011;23841;48.524;1.342;2022-11-20T06:41:17;6.55;;;2.55;;
38034;SDS011;23841;48.524;1.342;2022-11-20T06:43:42;4.95;;;2.40;;
38034;SDS011;23841;48.524;1.342;2022-11-20T06:46:09;8.02;;;2.53;;
38034;SDS011;23841;48.524;1.342;2022-11-20T06:48:34;6.50;;;2.72;;
38034;SDS011;23841;48.524;1.342;2022-11-20T06:50:59;5.72;;;2.35;;
38034;SDS011;23841;48.524;1.342;2022-11-20T06:53:27;13.77;;;3.92;;
38034;SDS011;23841;48.524;1.342;2022-11-20T06:55:55;8.43;;;2.50;;
38034;SDS011;23841;48.524;1.342;2022-11-20T06:58:20;5.07;;;2.35;;
38034;SDS011;23841;48.524;1.342;2022-11-20T07:00:45;8.02;;;2.83;;
38034;SDS011;23841;48.524;1.342;2022-11-20T07:03:11;7.55;;;2.80;;
38034;SDS011;23841;48.524;1.342;2022-11-20T07:05:37;9.40;;;2.75;;
38034;SDS011;23841;48.524;1.342;2022-11-20T07:08:03;7.43;;;2.60;;
38034;SDS011;23841;48.524;1.342;2022-11-20T07:10:29;8.02;;;2.90;;
38034;SDS011;23841;48.524;1.342;2022-11-20T07:12:55;10.10;;;3.00;;
38034;SDS011;23841;48.524;1.342;2022-11-20T07:15:21;5.60;;;2.58;;
38034;SDS011;23841;48.524;1.342;2022-11-20T07:17:47;9.07;;;2.80;;
38034;SDS011;23841;48.524;1.342;2022-11-20T07:20:12;8.40;;;3.05;;
38034;SDS011;23841;48.524;1.342;2022-11-20T07:22:38;11.00;;;3.63;;
38034;SDS011;23841;48.524;1.342;2022-11-20T07:25:04;10.82;;;3.95;;
38034;SDS011;23841;48.524;1.342;2022-11-20T07:27:31;8.35;;;3.00;;
38034;SDS011;23841;48.524;1.342;2022-11-20T07:29:56;8.68;;;3.20;;
38034;SDS011;23841;48.524;1.342;2022-11-20T07:32:22;8.77;;;3.47;;
38034;SDS011;23841;48.524;1.342;2022-11-20T07:34:47;8.60;;;2.88;;
38034;SDS011;23841;48.524;1.342;2022-11-20T07:37:13;7.70;;;2.15;;
38034;SDS011;23841;48.524;1.342;2022-11-20T07:39:38;8.65;;;3.72;;
38034;SDS011;23841;48.524;1.342;2022-11-20T07:42:04;7.10;;;2.80;;
38034;SDS011;23841;48.524;1.342;2022-11-20T07:44:30;4.97;;;2.65;;
38034;SDS011;23841;48.524;1.342;2022-11-20T07:46:56;5.30;;;2.22;;
38034;SDS011;23841;48.524;1.342;2022-11-20T07:49:21;4.50;;;2.42;;
38034;SDS011;23841;48.524;1.342;2022-11-20T07:51:46;6.30;;;2.45;;
38034;SDS011;23841;48.524;1.342;2022-11-20T07:54:11;9.57;;;2.45;;
38034;SDS011;23841;48.524;1.342;2022-11-20T07:56:37;6.65;;;2.20;;
38034;SDS011;23841;48.524;1.342;2022-11-20T07:59:02;6.60;;;2.33;;
38034;SDS011;23841;48.524;1.342;2022-11-20T08:01:28;7.25;;;1.90;;
38034;SDS011;23841;48.524;1.342;2022-11-20T08:03:53;4.03;;;1.83;;
38034;SDS011;23841;48.524;1.342;2022-11-20T08:06:18;8.80;;;2.67;;
38034;SDS011;23841;48.524;1.342;2022-11-20T08:08:44;9.80;;;2.35;;
38034;SDS011;23841;48.524;1.342;2022-11-20T08:11:10;5.53;;;1.90;;
38034;SDS011;23841;48.524;1.342;2022-11-20T08:13:53;8.43;;;2.55;;
38034;SDS011;23841;48.524;1.342;2022-11-20T08:16:40;5.38;;;2.15;;
38034;SDS011;23841;48.524;1.342;2022-11-20T08:19:06;5.63;;;2.03;;
38034;SDS011;23841;48.524;1.342;2022-11-20T08:21:32;6.85;;;2.38;;
38034;SDS011;23841;48.524;1.342;2022-11-20T08:23:57;5.60;;;2.05;;
38034;SDS011;23841;48.524;1.342;2022-11-20T08:26:22;6.00;;;1.92;;
38034;SDS011;23841;48.524;1.342;2022-11-20T08:28:48;6.40;;;2.67;;
38034;SDS011;23841;48.524;1.342;2022-11-20T08:31:13;7.80;;;2.60;;
38034;SDS011;23841;48.524;1.342;2022-11-20T08:33:39;6.75;;;3.00;;
38034;SDS011;23841;48.524;1.342;2022-11-20T08:36:04;4.80;;;2.30;;
38034;SDS011;23841;48.524;1.342;2022-11-20T08:38:30;6.32;;;2.85;;
38034;SDS011;23841;48.524;1.342;2022-11-20T08:41:00;7.15;;;2.47;;
38034;SDS011;23841;48.524;1.342;2022-11-20T08:43:45;5.68;;;2.30;;
38034;SDS011;23841;48.524;1.342;2022-11-20T08:46:10;6.60;;;2.78;;
38034;SDS011;23841;48.524;1.342;2022-11-20T08:48:36;8.30;;;2.95;;
38034;SDS011;23841;48.524;1.342;2022-11-20T08:51:02;6.13;;;2.63;;
38034;SDS011;23841;48.524;1.342;2022-11-20T08:53:28;5.93;;;2.60;;
38034;SDS011;23841;48.524;1.342;2022-11-20T08:55:54;8.20;;;2.75;;
38034;SDS011;23841;48.524;1.342;2022-11-20T08:58:21;5.38;;;2.30;;
38034;SDS011;23841;48.524;1.342;2022-11-20T09:00:47;6.57;;;2.40;;
38034;SDS011;23841;48.524;1.342;2022-11-20T09:03:12;5.75;;;2.15;;
38034;SDS011;23841;48.524;1.342;2022-11-20T09:05:38;6.55;;;2.28;;
38034;SDS011;23841;48.524;1.342;2022-11-20T09:08:03;7.55;;;2.53;;
38034;SDS011;23841;48.524;1.342;2022-11-20T09:10:29;9.77;;;2.40;;
38034;SDS011;23841;48.524;1.342;2022-11-20T09:12:54;6.38;;;2.10;;
38034;SDS011;23841;48.524;1.342;2022-11-20T09:15:20;8.00;;;3.15;;
38034;SDS011;23841;48.524;1.342;2022-11-20T09:17:55;5.60;;;2.60;;
38034;SDS011;23841;48.524;1.342;2022-11-20T09:20:20;7.68;;;2.80;;
38034;SDS011;23841;48.524;1.342;2022-11-20T09:22:46;4.18;;;2.10;;
38034;SDS011;23841;48.524;1.342;2022-11-20T09:25:11;6.60;;;2.40;;
38034;SDS011;23841;48.524;1.342;2022-11-20T09:27:37;6.22;;;2.70;;
38034;SDS011;23841;48.524;1.342;2022-11-20T09:30:03;8.50;;;2.42;;
38034;SDS011;23841;48.524;1.342;2022-11-20T09:32:28;7.20;;;2.65;;
38034;SDS011;23841;48.524;1.342;2022-11-20T09:34:53;8.75;;;3.00;;
38034;SDS011;23841;48.524;1.342;2022-11-20T09:37:19;6.57;;;2.60;;
38034;SDS011;23841;48.524;1.342;2022-11-20T09:39:44;6.68;;;3.03;;
38034;SDS011;23841;48.524;1.342;2022-11-20T09:42:13;7.10;;;3.30;;
38034;SDS011;23841;48.524;1.342;2022-11-20T09:50:30;9.18;;;3.08;;
38034;SDS011;23841;48.524;1.342;2022-11-20T09:53:46;4.93;;;2.23;;
38034;SDS011;23841;48.524;1.342;2022-11-20T09:55:50;5.47;;;2.22;;
38034;SDS011;23841;48.524;1.342;2022-11-20T09:58:18;4.68;;;2.22;;
38034;SDS011;23841;48.524;1.342;2022-11-20T10:00:51;8.73;;;2.10;;
38034;SDS011;23841;48.524;1.342;2022-11-20T10:03:19;4.18;;;2.03;;
38034;SDS011;23841;48.524;1.342;2022-11-20T10:05:47;6.95;;;2.17;;
38034;SDS011;23841;48.524;1.342;2022-11-20T10:08:20;5.40;;;2.65;;
38034;SDS011;23841;48.524;1.342;2022-11-20T10:24:52;3.75;;;1.70;;
38034;SDS011;23841;48.524;1.342;2022-11-20T10:30:03;3.90;;;1.88;;
38034;SDS011;23841;48.524;1.342;2022-11-20T10:32:36;4.53;;;2.03;;
38034;SDS011;23841;48.524;1.342;2022-11-20T10:35:10;5.88;;;2.00;;
38034;SDS011;23841;48.524;1.342;2022-11-20T10:42:55;4.65;;;1.70;;
38034;SDS011;23841;48.524;1.342;2022-11-20T10:50:35;3.05;;;1.73;;
38034;SDS011;23841;48.524;1.342;2022-11-20T10:53:10;3.20;;;1.75;;
38034;SDS011;23841;48.524;1.342;2022-11-20T10:55:50;3.45;;;1.70;;
38034;SDS011;23841;48.524;1.342;2022-11-20T10:58:30;2.92;;;1.60;;
38034;SDS011;23841;48.524;1.342;2022-11-20T11:01:05;4.55;;;1.88;;
38034;SDS011;23841;48.524;1.342;2022-11-20T11:03:31;5.97;;;1.65;;
38034;SDS011;23841;48.524;1.342;2022-11-20T11:06:00;3.70;;;1.60;;
38034;SDS011;23841;48.524;1.342;2022-11-20T11:08:35;4.20;;;1.60;;
38034;SDS011;23841;48.524;1.342;2022-11-20T11:11:07;2.58;;;1.42;;
38034;SDS011;23841;48.524;1.342;2022-11-20T11:13:38;2.67;;;1.52;;
38034;SDS011;23841;48.524;1.342;2022-11-20T11:16:03;3.08;;;1.20;;
38034;SDS011;23841;48.524;1.342;2022-11-20T11:18:33;3.58;;;1.70;;
38034;SDS011;23841;48.524;1.342;2022-11-20T11:21:00;5.15;;;1.20;;
38034;SDS011;23841;48.524;1.342;2022-11-20T11:23:32;3.25;;;1.45;;
38034;SDS011;23841;48.524;1.342;2022-11-20T11:25:58;3.75;;;1.50;;
38034;SDS011;23841;48.524;1.342;2022-11-20T11:28:25;3.88;;;1.48;;
38034;SDS011;23841;48.524;1.342;2022-11-20T11:30:53;2.40;;;1.25;;
38034;SDS011;23841;48.524;1.342;2022-11-20T11:33:37;3.60;;;1.50;;
38034;SDS011;23841;48.524;1.342;2022-11-20T11:36:03;4.15;;;1.38;;
38034;SDS011;23841;48.524;1.342;2022-11-20T11:38:42;2.95;;;1.23;;
38034;SDS011;23841;48.524;1.342;2022-11-20T11:41:10;1.42;;;0.80;;
38034;SDS011;23841;48.524;1.342;2022-11-20T11:43:48;3.10;;;1.50;;
38034;SDS011;23841;48.524;1.342;2022-11-20T11:46:35;1.83;;;1.10;;
38034;SDS011;23841;48.524;1.342;2022-11-20T11:51:41;2.78;;;1.27;;
38034;SDS011;23841;48.524;1.342;2022-11-20T11:54:16;2.88;;;1.10;;
38034;SDS011;23841;48.524;1.342;2022-11-20T11:57:09;2.03;;;1.05;;
38034;SDS011;23841;48.524;1.342;2022-11-20T11:59:45;2.95;;;1.25;;
38034;SDS011;23841;48.524;1.342;2022-11-20T12:05:20;2.30;;;1.10;;
38034;SDS011;23841;48.524;1.342;2022-11-20T12:13:15;2.55;;;1.33;;
38034;SDS011;23841;48.524;1.342;2022-11-20T12:15:55;8.20;;;1.77;;
38034;SDS011;23841;48.524;1.342;2022-11-20T12:18:21;2.20;;;1.10;;
38034;SDS011;23841;48.524;1.342;2022-11-20T12:21:00;3.75;;;1.13;;
38034;SDS011;23841;48.524;1.342;2022-11-20T12:26:03;2.10;;;0.95;;
38034;SDS011;23841;48.524;1.342;2022-11-20T12:47:24;2.75;;;0.88;;
38034;SDS011;23841;48.524;1.342;2022-11-20T12:50:00;2.15;;;1.10;;
38034;SDS011;23841;48.524;1.342;2022-11-20T12:52:30;1.92;;;0.70;;
38034;SDS011;23841;48.524;1.342;2022-11-20T12:55:11;2.00;;;0.98;;
38034;SDS011;23841;48.524;1.342;2022-11-20T13:05:28;3.47;;;1.27;;
38034;SDS011;23841;48.524;1.342;2022-11-20T13:07:56;3.63;;;1.30;;
38034;SDS011;23841;48.524;1.342;2022-11-20T13:10:37;3.50;;;0.95;;
38034;SDS011;23841;48.524;1.342;2022-11-20T13:13:15;4.50;;;1.20;;
38034;SDS011;23841;48.524;1.342;2022-11-20T13:15:51;2.33;;;1.02;;
38034;SDS011;23841;48.524;1.342;2022-11-20T13:18:18;2.92;;;1.20;;
38034;SDS011;23841;48.524;1.342;2022-11-20T13:20:44;1.80;;;0.90;;
38034;SDS011;23841;48.524;1.342;2022-11-20T13:23:10;3.38;;;1.08;;
38034;SDS011;23841;48.524;1.342;2022-11-20T13:25:36;4.05;;;1.30;;
38034;SDS011;23841;48.524;1.342;2022-11-20T13:30:34;4.15;;;0.93;;
38034;SDS011;23841;48.524;1.342;2022-11-20T13:33:07;3.20;;;1.00;;
38034;SDS011;23841;48.524;1.342;2022-11-20T13:35:37;3.13;;;0.95;;
38034;SDS011;23841;48.524;1.342;2022-11-20T13:38:09;6.07;;;1.33;;
38034;SDS011;23841;48.524;1.342;2022-11-20T13:41:22;4.07;;;1.40;;
38034;SDS011;23841;48.524;1.342;2022-11-20T13:43:40;4.45;;;1.20;;
38034;SDS011;23841;48.524;1.342;2022-11-20T13:46:06;5.45;;;1.40;;
38034;SDS011;23841;48.524;1.342;2022-11-20T13:48:33;5.47;;;1.13;;
38034;SDS011;23841;48.524;1.342;2022-11-20T13:51:07;3.58;;;1.05;;
38034;SDS011;23841;48.524;1.342;2022-11-20T14:01:16;5.55;;;1.30;;
38034;SDS011;23841;48.524;1.342;2022-11-20T14:03:42;5.68;;;1.33;;
38034;SDS011;23841;48.524;1.342;2022-11-20T14:06:11;5.00;;;1.30;;
38034;SDS011;23841;48.524;1.342;2022-11-20T14:11:04;3.95;;;1.58;;
38034;SDS011;23841;48.524;1.342;2022-11-20T14:13:30;3.97;;;1.10;;
38034;SDS011;23841;48.524;1.342;2022-11-20T14:15:58;4.03;;;1.48;;
38034;SDS011;23841;48.524;1.342;2022-11-20T14:18:25;4.07;;;1.30;;
38034;SDS011;23841;48.524;1.342;2022-11-20T14:20:50;5.82;;;1.40;;
38034;SDS011;23841;48.524;1.342;2022-11-20T14:23:25;5.35;;;1.45;;
38034;SDS011;23841;48.524;1.342;2022-11-20T14:25:54;5.85;;;1.52;;
38034;SDS011;23841;48.524;1.342;2022-11-20T14:28:27;4.07;;;1.38;;
38034;SDS011;23841;48.524;1.342;2022-11-20T14:30:54;6.63;;;1.95;;
38034;SDS011;23841;48.524;1.342;2022-11-20T14:33:21;7.53;;;2.95;;
38034;SDS011;23841;48.524;1.342;2022-11-20T14:35:53;5.30;;;1.75;;
38034;SDS011;23841;48.524;1.342;2022-11-20T14:38:21;6.18;;;1.50;;
38034;SDS011;23841;48.524;1.342;2022-11-20T14:40:47;4.97;;;1.25;;
38034;SDS011;23841;48.524;1.342;2022-11-20T14:43:20;4.15;;;1.58;;
38034;SDS011;23841;48.524;1.342;2022-11-20T14:45:48;4.68;;;1.73;;
38034;SDS011;23841;48.524;1.342;2022-11-20T14:48:18;5.47;;;1.70;;
38034;SDS011;23841;48.524;1.342;2022-11-20T14:50:45;7.43;;;1.70;;
38034;SDS011;23841;48.524;1.342;2022-11-20T14:53:12;4.32;;;1.38;;
38034;SDS011;23841;48.524;1.342;2022-11-20T14:55:53;5.95;;;1.42;;
38034;SDS011;23841;48.524;1.342;2022-11-20T14:58:23;7.45;;;1.50;;
38034;SDS011;23841;48.524;1.342;2022-11-20T15:03:20;4.47;;;1.60;;
38034;SDS011;23841;48.524;1.342;2022-11-20T15:05:48;4.25;;;1.48;;
38034;SDS011;23841;48.524;1.342;2022-11-20T15:08:14;6.40;;;1.80;;
38034;SDS011;23841;48.524;1.342;2022-11-20T15:10:50;6.35;;;1.85;;
38034;SDS011;23841;48.524;1.342;2022-11-20T15:13:17;6.15;;;1.55;;
38034;SDS011;23841;48.524;1.342;2022-11-20T15:15:44;5.43;;;2.22;;
38034;SDS011;23841;48.524;1.342;2022-11-20T15:18:13;6.35;;;1.92;;
38034;SDS011;23841;48.524;1.342;2022-11-20T15:20:40;5.70;;;1.95;;
38034;SDS011;23841;48.524;1.342;2022-11-20T15:23:10;7.78;;;2.38;;
38034;SDS011;23841;48.524;1.342;2022-11-20T15:25:37;9.07;;;2.13;;
38034;SDS011;23841;48.524;1.342;2022-11-20T15:28:04;6.93;;;2.58;;
38034;SDS011;23841;48.524;1.342;2022-11-20T15:30:37;8.93;;;2.38;;
38034;SDS011;23841;48.524;1.342;2022-11-20T15:33:02;8.52;;;2.30;;
38034;SDS011;23841;48.524;1.342;2022-11-20T15:35:28;6.43;;;1.50;;
38034;SDS011;23841;48.524;1.342;2022-11-20T15:37:53;6.47;;;2.03;;
38034;SDS011;23841;48.524;1.342;2022-11-20T15:40:19;6.70;;;2.10;;
38034;SDS011;23841;48.524;1.342;2022-11-20T15:42:44;4.82;;;1.65;;
38034;SDS011;23841;48.524;1.342;2022-11-20T15:45:28;8.35;;;2.10;;
38034;SDS011;23841;48.524;1.342;2022-11-20T15:47:54;7.45;;;2.42;;
38034;SDS011;23841;48.524;1.342;2022-11-20T15:50:19;8.65;;;1.88;;
38034;SDS011;23841;48.524;1.342;2022-11-20T15:52:45;9.30;;;2.30;;
38034;SDS011;23841;48.524;1.342;2022-11-20T15:55:10;12.52;;;3.58;;
38034;SDS011;23841;48.524;1.342;2022-11-20T15:57:36;10.35;;;2.45;;
38034;SDS011;23841;48.524;1.342;2022-11-20T16:00:01;7.45;;;2.10;;
38034;SDS011;23841;48.524;1.342;2022-11-20T16:02:26;8.45;;;2.80;;
38034;SDS011;23841;48.524;1.342;2022-11-20T16:04:52;9.00;;;2.33;;
38034;SDS011;23841;48.524;1.342;2022-11-20T16:07:17;9.70;;;2.50;;
38034;SDS011;23841;48.524;1.342;2022-11-20T16:09:43;7.43;;;2.08;;
38034;SDS011;23841;48.524;1.342;2022-11-20T16:12:09;7.68;;;1.90;;
38034;SDS011;23841;48.524;1.342;2022-11-20T16:14:54;11.10;;;2.13;;
38034;SDS011;23841;48.524;1.342;2022-11-20T16:17:38;8.20;;;2.35;;
38034;SDS011;23841;48.524;1.342;2022-11-20T16:20:10;10.90;;;2.70;;
38034;SDS011;23841;48.524;1.342;2022-11-20T16:22:35;9.13;;;2.15;;
38034;SDS011;23841;48.524;1.342;2022-11-20T16:25:01;9.52;;;2.33;;
38034;SDS011;23841;48.524;1.342;2022-11-20T16:27:26;11.00;;;3.17;;